createdAt,value
2018-12-23T00:00:52.719Z,19.60
2018-12-23T00:01:55.215Z,19.59
2018-12-23T00:02:57.790Z,19.57
2018-12-23T00:04:00.281Z,19.57
2018-12-23T00:05:11.190Z,19.57
2018-12-23T00:06:07.402Z,19.56
2018-12-23T00:07:09.863Z,19.57
2018-12-23T00:08:12.378Z,19.55
2018-12-23T00:09:14.964Z,19.54
2018-12-23T00:10:17.500Z,19.54
2018-12-23T00:11:20.039Z,19.54
2018-12-23T00:12:22.590Z,19.54
2018-12-23T00:13:25.131Z,19.53
2018-12-23T00:14:27.624Z,19.52
2018-12-23T00:15:30.167Z,19.52
2018-12-23T00:16:32.642Z,19.50
2018-12-23T00:17:35.100Z,19.48
2018-12-23T00:18:37.614Z,19.49
2018-12-23T00:19:40.101Z,19.48
2018-12-23T00:20:42.578Z,19.47
2018-12-23T00:21:45.062Z,19.47
2018-12-23T00:22:47.541Z,19.47
2018-12-23T00:23:50.044Z,19.48
2018-12-23T00:24:52.598Z,19.49
2018-12-23T00:25:55.056Z,19.49
2018-12-23T00:26:57.528Z,19.50
2018-12-23T00:28:00.057Z,19.49
2018-12-23T00:29:02.547Z,19.50
2018-12-23T00:30:07.171Z,19.49
2018-12-23T00:31:09.659Z,19.49
2018-12-23T00:32:12.138Z,19.49
2018-12-23T00:33:14.603Z,19.50
2018-12-23T00:34:17.098Z,19.49
2018-12-23T00:35:20.569Z,19.50
2018-12-23T00:36:23.348Z,19.49
2018-12-23T00:37:25.830Z,19.49
2018-12-23T00:38:28.325Z,19.49
2018-12-23T00:39:30.823Z,19.49
2018-12-23T00:40:33.369Z,19.50
2018-12-23T00:41:36.709Z,19.49
2018-12-23T00:42:39.358Z,19.49
2018-12-23T00:43:41.834Z,19.48
2018-12-23T00:44:44.348Z,19.48
2018-12-23T00:45:46.827Z,19.46
2018-12-23T00:46:49.303Z,19.47
2018-12-23T00:47:51.782Z,19.46
2018-12-23T00:48:54.263Z,19.47
2018-12-23T00:49:56.762Z,19.47
2018-12-23T00:50:59.252Z,19.47
2018-12-23T00:52:01.728Z,19.46
2018-12-23T00:53:04.290Z,19.46
2018-12-23T00:54:06.780Z,19.46
2018-12-23T00:55:09.278Z,19.46
2018-12-23T00:56:11.806Z,19.45
2018-12-23T00:57:14.268Z,19.44
2018-12-23T00:58:16.842Z,19.45
2018-12-23T00:59:19.434Z,19.45
2018-12-23T01:00:21.934Z,19.45
2018-12-23T01:01:24.445Z,19.48
2018-12-23T01:02:26.921Z,19.47
2018-12-23T01:03:29.409Z,19.47
2018-12-23T01:04:31.901Z,19.46
2018-12-23T01:05:34.388Z,19.46
2018-12-23T01:06:36.859Z,19.45
2018-12-23T01:07:39.381Z,19.46
2018-12-23T01:08:41.887Z,19.48
2018-12-23T01:09:44.379Z,19.48
2018-12-23T01:10:46.987Z,19.49
2018-12-23T01:11:49.448Z,19.51
2018-12-23T01:12:51.903Z,19.52
2018-12-23T01:13:54.368Z,19.54
2018-12-23T01:14:56.828Z,19.54
2018-12-23T01:15:59.375Z,19.54
2018-12-23T01:17:01.920Z,19.55
2018-12-23T01:18:04.380Z,19.56
2018-12-23T01:19:06.900Z,19.57
2018-12-23T01:20:09.562Z,19.58
2018-12-23T01:21:12.081Z,19.59
2018-12-23T01:22:14.554Z,19.58
2018-12-23T01:23:17.026Z,19.59
2018-12-23T01:24:19.503Z,19.60
2018-12-23T01:25:21.993Z,19.59
2018-12-23T01:26:24.502Z,19.59
2018-12-23T01:27:26.979Z,19.59
2018-12-23T01:28:29.475Z,19.60
2018-12-23T01:29:32.026Z,19.59
2018-12-23T01:30:34.494Z,19.63
2018-12-23T01:31:36.989Z,19.60
2018-12-23T01:32:39.452Z,19.60
2018-12-23T01:33:41.936Z,19.58
2018-12-23T01:34:44.418Z,19.58
2018-12-23T01:35:46.911Z,19.58
2018-12-23T01:36:49.429Z,19.59
2018-12-23T01:37:51.929Z,19.57
2018-12-23T01:38:54.403Z,19.55
2018-12-23T01:39:56.876Z,19.54
2018-12-23T01:40:59.358Z,19.53
2018-12-23T01:42:01.873Z,19.52
2018-12-23T01:43:04.346Z,19.50
2018-12-23T01:44:06.837Z,19.48
2018-12-23T01:45:09.331Z,19.48
2018-12-23T01:46:11.838Z,19.46
2018-12-23T01:47:14.339Z,19.45
2018-12-23T01:48:16.795Z,19.43
2018-12-23T01:49:19.274Z,19.42
2018-12-23T01:50:21.761Z,19.41
2018-12-23T01:51:24.258Z,19.40
2018-12-23T01:52:26.818Z,19.38
2018-12-23T01:53:29.315Z,19.38
2018-12-23T01:54:31.776Z,19.38
2018-12-23T01:55:34.268Z,19.35
2018-12-23T01:56:36.830Z,19.34
2018-12-23T01:57:39.401Z,19.33
2018-12-23T01:58:41.886Z,19.31
2018-12-23T01:59:44.402Z,19.30
2018-12-23T02:00:46.891Z,19.31
2018-12-23T02:01:49.374Z,19.30
2018-12-23T02:02:51.886Z,19.29
2018-12-23T02:03:54.371Z,19.28
2018-12-23T02:04:56.850Z,19.27
2018-12-23T02:05:59.333Z,19.27
2018-12-23T02:07:01.890Z,19.24
2018-12-23T02:08:04.443Z,19.26
2018-12-23T02:09:06.982Z,19.25
2018-12-23T02:10:09.540Z,19.23
2018-12-23T02:11:12.042Z,19.23
2018-12-23T02:12:14.537Z,19.23
2018-12-23T02:13:17.030Z,19.22
2018-12-23T02:14:19.589Z,19.22
2018-12-23T02:15:22.052Z,19.21
2018-12-23T02:16:24.969Z,19.20
2018-12-23T02:17:27.432Z,19.20
2018-12-23T02:18:30.017Z,19.20
2018-12-23T02:19:32.499Z,19.20
2018-12-23T02:20:34.998Z,19.17
2018-12-23T02:21:37.665Z,19.18
2018-12-23T02:22:40.142Z,19.18
2018-12-23T02:23:42.637Z,19.17
2018-12-23T02:24:45.147Z,19.18
2018-12-23T02:25:47.637Z,19.18
2018-12-23T02:26:50.189Z,19.19
2018-12-23T02:27:52.703Z,19.20
2018-12-23T02:28:55.182Z,19.23
2018-12-23T02:29:57.640Z,19.26
2018-12-23T02:31:00.118Z,19.26
2018-12-23T02:32:02.606Z,19.29
2018-12-23T02:33:05.078Z,19.30
2018-12-23T02:34:07.575Z,19.31
2018-12-23T02:35:10.070Z,19.33
2018-12-23T02:36:12.567Z,19.35
2018-12-23T02:37:15.044Z,19.36
2018-12-23T02:38:17.531Z,19.38
2018-12-23T02:39:20.037Z,19.38
2018-12-23T02:40:22.610Z,19.39
2018-12-23T02:41:31.458Z,19.39
2018-12-23T02:42:29.567Z,19.40
2018-12-23T02:43:32.050Z,19.40
2018-12-23T02:44:34.520Z,19.39
2018-12-23T02:45:36.996Z,19.39
2018-12-23T02:46:39.464Z,19.39
2018-12-23T02:47:41.936Z,19.41
2018-12-23T02:48:44.400Z,19.41
2018-12-23T02:49:46.932Z,19.42
2018-12-23T02:50:49.390Z,19.43
2018-12-23T02:51:51.884Z,19.42
2018-12-23T02:52:54.401Z,19.44
2018-12-23T02:53:56.889Z,19.44
2018-12-23T02:54:59.373Z,19.44
2018-12-23T02:56:01.857Z,19.45
2018-12-23T02:57:04.340Z,19.46
2018-12-23T02:58:06.822Z,19.44
2018-12-23T02:59:09.296Z,19.43
2018-12-23T03:00:11.777Z,19.43
2018-12-23T03:01:14.232Z,19.43
2018-12-23T03:02:16.706Z,19.43
2018-12-23T03:03:19.396Z,19.42
2018-12-23T03:04:21.853Z,19.41
2018-12-23T03:05:24.354Z,19.42
2018-12-23T03:06:26.830Z,19.41
2018-12-23T03:07:29.303Z,19.41
2018-12-23T03:08:31.775Z,19.41
2018-12-23T03:09:34.252Z,19.43
2018-12-23T03:10:36.752Z,19.43
2018-12-23T03:11:39.311Z,19.46
2018-12-23T03:12:41.797Z,19.46
2018-12-23T03:13:44.252Z,19.49
2018-12-23T03:14:46.726Z,19.47
2018-12-23T03:15:49.299Z,19.48
2018-12-23T03:16:51.986Z,19.49
2018-12-23T03:17:54.618Z,19.49
2018-12-23T03:18:57.098Z,19.49
2018-12-23T03:19:59.571Z,19.49
2018-12-23T03:21:02.129Z,19.48
2018-12-23T03:22:04.680Z,19.49
2018-12-23T03:23:07.154Z,19.49
2018-12-23T03:24:09.633Z,19.48
2018-12-23T03:25:12.102Z,19.48
2018-12-23T03:26:14.625Z,19.48
2018-12-23T03:27:17.117Z,19.49
2018-12-23T03:28:19.580Z,19.50
2018-12-23T03:29:22.054Z,19.50
2018-12-23T03:30:24.529Z,19.53
2018-12-23T03:31:27.011Z,19.53
2018-12-23T03:32:29.505Z,19.54
2018-12-23T03:33:32.005Z,19.55
2018-12-23T03:34:34.506Z,19.57
2018-12-23T03:35:36.978Z,19.58
2018-12-23T03:36:39.511Z,19.57
2018-12-23T03:37:41.977Z,19.58
2018-12-23T03:38:44.456Z,19.58
2018-12-23T03:39:46.919Z,19.59
2018-12-23T03:40:49.391Z,19.60
2018-12-23T03:41:51.949Z,19.59
2018-12-23T03:42:54.554Z,19.59
2018-12-23T03:43:57.030Z,19.58
2018-12-23T03:44:59.510Z,19.59
2018-12-23T03:46:01.983Z,19.57
2018-12-23T03:47:04.513Z,19.56
2018-12-23T03:48:07.009Z,19.57
2018-12-23T03:49:09.504Z,19.60
2018-12-23T03:50:11.995Z,19.60
2018-12-23T03:51:14.484Z,19.60
2018-12-23T03:52:17.071Z,19.61
2018-12-23T03:53:19.552Z,19.62
2018-12-23T03:54:22.043Z,19.63
2018-12-23T03:55:24.558Z,19.64
2018-12-23T03:56:27.034Z,19.64
2018-12-23T03:57:29.534Z,19.64
2018-12-23T03:58:32.007Z,19.64
2018-12-23T03:59:34.483Z,19.65
2018-12-23T04:00:36.955Z,19.65
2018-12-23T04:01:39.438Z,19.65
2018-12-23T04:02:41.916Z,19.65
2018-12-23T04:03:44.462Z,19.64
2018-12-23T04:04:46.964Z,19.63
2018-12-23T04:05:49.528Z,19.64
2018-12-23T04:06:52.026Z,19.64
2018-12-23T04:07:54.517Z,19.62
2018-12-23T04:08:56.983Z,19.62
2018-12-23T04:09:59.453Z,19.63
2018-12-23T04:11:01.923Z,19.63
2018-12-23T04:12:04.398Z,19.63
2018-12-23T04:13:06.891Z,19.64
2018-12-23T04:14:09.387Z,19.65
2018-12-23T04:15:11.953Z,19.67
2018-12-23T04:16:14.431Z,19.68
2018-12-23T04:17:16.910Z,19.68
2018-12-23T04:18:19.390Z,19.68
2018-12-23T04:19:21.865Z,19.68
2018-12-23T04:20:24.345Z,19.68
2018-12-23T04:21:26.837Z,19.68
2018-12-23T04:22:29.316Z,19.68
2018-12-23T04:23:31.797Z,19.67
2018-12-23T04:24:34.289Z,19.66
2018-12-23T04:25:36.767Z,19.68
2018-12-23T04:26:39.262Z,19.67
2018-12-23T04:27:41.757Z,19.65
2018-12-23T04:28:44.257Z,19.67
2018-12-23T04:29:46.906Z,19.67
2018-12-23T04:30:49.385Z,19.68
2018-12-23T04:31:51.853Z,19.69
2018-12-23T04:32:54.327Z,19.69
2018-12-23T04:33:56.942Z,19.71
2018-12-23T04:34:59.404Z,19.69
2018-12-23T04:36:01.874Z,19.71
2018-12-23T04:37:04.371Z,19.73
2018-12-23T04:38:06.846Z,19.71
2018-12-23T04:39:09.345Z,19.71
2018-12-23T04:40:11.822Z,19.71
2018-12-23T04:41:14.317Z,19.69
2018-12-23T04:42:16.780Z,19.69
2018-12-23T04:43:19.258Z,19.68
2018-12-23T04:44:21.754Z,19.67
2018-12-23T04:45:24.219Z,19.65
2018-12-23T04:46:26.781Z,19.65
2018-12-23T04:47:29.358Z,19.63
2018-12-23T04:48:31.811Z,19.63
2018-12-23T04:49:34.329Z,19.63
2018-12-23T04:50:36.826Z,19.64
2018-12-23T04:51:39.322Z,19.65
2018-12-23T04:52:41.798Z,19.67
2018-12-23T04:53:44.289Z,19.67
2018-12-23T04:54:46.880Z,19.68
2018-12-23T04:55:49.354Z,19.70
2018-12-23T04:56:51.829Z,19.70
2018-12-23T04:57:54.310Z,19.72
2018-12-23T04:58:56.798Z,19.72
2018-12-23T04:59:59.276Z,19.71
2018-12-23T05:01:01.750Z,19.72
2018-12-23T05:02:04.325Z,19.72
2018-12-23T05:03:06.851Z,19.72
2018-12-23T05:04:09.332Z,19.72
2018-12-23T05:05:11.849Z,19.71
2018-12-23T05:06:14.314Z,19.71
2018-12-23T05:07:16.792Z,19.69
2018-12-23T05:08:19.270Z,19.70
2018-12-23T05:09:21.728Z,19.70
2018-12-23T05:10:24.208Z,19.69
2018-12-23T05:11:26.699Z,19.72
2018-12-23T05:12:29.194Z,19.72
2018-12-23T05:13:31.688Z,19.73
2018-12-23T05:14:34.186Z,19.73
2018-12-23T05:15:36.677Z,19.75
2018-12-23T05:16:39.172Z,19.75
2018-12-23T05:17:41.665Z,19.77
2018-12-23T05:18:44.139Z,19.76
2018-12-23T05:19:46.632Z,19.77
2018-12-23T05:20:49.109Z,19.77
2018-12-23T05:21:51.602Z,19.76
2018-12-23T05:22:54.094Z,19.77
2018-12-23T05:23:56.572Z,19.75
2018-12-23T05:24:59.114Z,19.76
2018-12-23T05:26:01.622Z,19.74
2018-12-23T05:27:04.158Z,19.73
2018-12-23T05:28:06.624Z,19.72
2018-12-23T05:29:09.083Z,19.72
2018-12-23T05:30:11.573Z,19.73
2018-12-23T05:31:14.084Z,19.73
2018-12-23T05:32:16.541Z,19.73
2018-12-23T05:33:19.015Z,19.75
2018-12-23T05:34:21.495Z,19.76
2018-12-23T05:35:23.972Z,19.75
2018-12-23T05:36:26.475Z,19.76
2018-12-23T05:37:28.950Z,19.78
2018-12-23T05:38:31.437Z,19.77
2018-12-23T05:39:33.919Z,19.78
2018-12-23T05:40:36.390Z,19.78
2018-12-23T05:41:38.973Z,19.77
2018-12-23T05:42:41.447Z,19.78
2018-12-23T05:43:43.910Z,19.76
2018-12-23T05:44:46.394Z,19.77
2018-12-23T05:45:48.870Z,19.77
2018-12-23T05:46:51.340Z,19.74
2018-12-23T05:47:53.800Z,19.74
2018-12-23T05:48:56.275Z,19.73
2018-12-23T05:49:58.764Z,19.73
2018-12-23T05:51:01.240Z,19.72
2018-12-23T05:52:03.802Z,19.75
2018-12-23T05:53:06.256Z,19.75
2018-12-23T05:54:08.712Z,19.74
2018-12-23T05:55:11.181Z,19.75
2018-12-23T05:56:13.650Z,19.74
2018-12-23T05:57:16.161Z,19.77
2018-12-23T05:58:18.648Z,19.77
2018-12-23T05:59:21.141Z,19.75
2018-12-23T06:00:23.622Z,19.76
2018-12-23T06:01:26.098Z,19.77
2018-12-23T06:02:28.594Z,19.74
2018-12-23T06:03:31.052Z,19.75
2018-12-23T06:04:33.541Z,19.75
2018-12-23T06:05:36.140Z,19.75
2018-12-23T06:06:38.729Z,19.74
2018-12-23T06:07:41.207Z,19.74
2018-12-23T06:08:43.683Z,19.73
2018-12-23T06:09:46.162Z,19.74
2018-12-23T06:10:48.638Z,19.73
2018-12-23T06:11:51.109Z,19.73
2018-12-23T06:12:53.594Z,19.75
2018-12-23T06:13:56.090Z,19.79
2018-12-23T06:14:58.593Z,19.78
2018-12-23T06:16:01.066Z,19.81
2018-12-23T06:17:03.623Z,19.82
2018-12-23T06:18:06.237Z,19.87
2018-12-23T06:19:08.718Z,19.88
2018-12-23T06:20:11.202Z,19.88
2018-12-23T06:21:13.660Z,19.90
2018-12-23T06:22:16.137Z,19.91
2018-12-23T06:23:18.646Z,19.91
2018-12-23T06:24:21.114Z,19.89
2018-12-23T06:25:23.591Z,19.89
2018-12-23T06:26:26.067Z,19.87
2018-12-23T06:27:28.528Z,19.85
2018-12-23T06:28:31.042Z,19.84
2018-12-23T06:29:33.526Z,19.83
2018-12-23T06:30:35.986Z,19.82
2018-12-23T06:31:38.449Z,19.82
2018-12-23T06:32:40.912Z,19.81
2018-12-23T06:33:43.406Z,19.81
2018-12-23T06:34:45.868Z,19.80
2018-12-23T06:35:48.328Z,19.85
2018-12-23T06:36:50.810Z,19.88
2018-12-23T06:37:53.267Z,19.86
2018-12-23T06:38:55.767Z,19.84
2018-12-23T06:39:58.256Z,19.81
2018-12-23T06:41:00.748Z,19.79
2018-12-23T06:42:03.212Z,19.74
2018-12-23T06:43:05.690Z,19.69
2018-12-23T06:44:08.204Z,19.64
2018-12-23T06:45:10.697Z,19.60
2018-12-23T06:46:13.160Z,19.54
2018-12-23T06:47:15.638Z,19.50
2018-12-23T06:48:18.117Z,19.47
2018-12-23T06:49:20.622Z,19.43
2018-12-23T06:50:24.115Z,19.42
2018-12-23T06:51:26.576Z,19.42
2018-12-23T06:52:29.079Z,19.41
2018-12-23T06:53:31.626Z,19.40
2018-12-23T06:54:34.108Z,19.40
2018-12-23T06:55:36.587Z,19.38
2018-12-23T06:56:39.062Z,19.40
2018-12-23T06:57:41.561Z,19.45
2018-12-23T06:58:44.042Z,19.47
2018-12-23T06:59:46.534Z,19.47
2018-12-23T07:00:49.024Z,19.45
2018-12-23T07:01:51.502Z,19.43
2018-12-23T07:02:53.996Z,19.43
2018-12-23T07:03:56.497Z,19.44
2018-12-23T07:04:58.991Z,19.43
2018-12-23T07:06:01.481Z,19.47
2018-12-23T07:07:03.973Z,19.43
2018-12-23T07:08:06.481Z,19.43
2018-12-23T07:09:08.977Z,19.42
2018-12-23T07:10:11.493Z,19.39
2018-12-23T07:11:14.050Z,19.41
2018-12-23T07:12:16.533Z,19.38
2018-12-23T07:13:19.022Z,19.33
2018-12-23T07:14:21.505Z,19.30
2018-12-23T07:15:24.021Z,19.28
2018-12-23T07:16:26.484Z,19.25
2018-12-23T07:17:28.967Z,19.20
2018-12-23T07:18:31.431Z,19.18
2018-12-23T07:19:33.892Z,19.14
2018-12-23T07:20:36.386Z,19.11
2018-12-23T07:21:38.892Z,19.08
2018-12-23T07:22:41.374Z,19.05
2018-12-23T07:23:43.846Z,19.02
2018-12-23T07:24:46.340Z,19.00
2018-12-23T07:25:48.842Z,19.00
2018-12-23T07:26:51.323Z,18.99
2018-12-23T07:27:53.787Z,18.99
2018-12-23T07:28:56.262Z,18.99
2018-12-23T07:29:58.753Z,19.00
2018-12-23T07:31:01.256Z,18.99
2018-12-23T07:32:03.716Z,19.00
2018-12-23T07:33:06.437Z,19.00
2018-12-23T07:34:08.904Z,19.00
2018-12-23T07:35:11.379Z,18.99
2018-12-23T07:36:13.923Z,18.96
2018-12-23T07:37:16.478Z,18.95
2018-12-23T07:38:18.959Z,18.93
2018-12-23T07:39:21.444Z,18.91
2018-12-23T07:40:23.929Z,18.90
2018-12-23T07:41:26.430Z,18.88
2018-12-23T07:42:28.906Z,18.87
2018-12-23T07:43:31.383Z,18.87
2018-12-23T07:44:33.861Z,18.87
2018-12-23T07:45:36.377Z,18.87
2018-12-23T07:46:38.872Z,18.86
2018-12-23T07:47:41.340Z,18.85
2018-12-23T07:48:43.822Z,18.85
2018-12-23T07:49:46.298Z,18.84
2018-12-23T07:50:48.795Z,18.83
2018-12-23T07:51:51.274Z,18.82
2018-12-23T07:52:53.751Z,18.80
2018-12-23T07:53:56.245Z,18.80
2018-12-23T07:54:58.727Z,18.78
2018-12-23T07:56:01.223Z,18.76
2018-12-23T07:57:03.784Z,18.75
2018-12-23T07:58:06.266Z,18.75
2018-12-23T07:59:08.746Z,18.73
2018-12-23T08:00:11.208Z,18.72
2018-12-23T08:01:13.697Z,18.71
2018-12-23T08:02:16.185Z,18.70
2018-12-23T08:03:18.644Z,18.69
2018-12-23T08:04:21.103Z,18.68
2018-12-23T08:05:23.578Z,18.67
2018-12-23T08:06:26.060Z,18.66
2018-12-23T08:07:35.951Z,18.66
2018-12-23T08:08:33.015Z,18.65
2018-12-23T08:09:35.480Z,18.64
2018-12-23T08:10:37.950Z,18.64
2018-12-23T08:11:40.472Z,18.62
2018-12-23T08:12:42.936Z,18.62
2018-12-23T08:13:45.506Z,18.61
2018-12-23T08:14:47.964Z,18.60
2018-12-23T08:15:50.423Z,18.59
2018-12-23T08:16:53.195Z,18.58
2018-12-23T08:17:55.692Z,18.57
2018-12-23T08:18:58.265Z,18.58
2018-12-23T08:20:00.823Z,18.57
2018-12-23T08:21:03.522Z,18.57
2018-12-23T08:22:06.023Z,18.55
2018-12-23T08:23:08.487Z,18.54
2018-12-23T08:24:10.966Z,18.54
2018-12-23T08:25:13.451Z,18.54
2018-12-23T08:26:15.931Z,18.53
2018-12-23T08:27:18.431Z,18.53
2018-12-23T08:28:20.907Z,18.51
2018-12-23T08:29:23.399Z,18.51
2018-12-23T08:30:25.864Z,18.50
2018-12-23T08:31:28.339Z,18.50
2018-12-23T08:32:30.841Z,18.50
2018-12-23T08:33:33.484Z,18.48
2018-12-23T08:34:35.985Z,18.47
2018-12-23T08:35:38.466Z,18.48
2018-12-23T08:36:40.946Z,18.47
2018-12-23T08:37:44.715Z,18.45
2018-12-23T08:38:47.534Z,18.45
2018-12-23T08:39:50.016Z,18.44
2018-12-23T08:40:52.475Z,18.44
2018-12-23T08:41:55.013Z,18.43
2018-12-23T08:42:57.514Z,18.42
2018-12-23T08:44:00.010Z,18.43
2018-12-23T08:45:02.509Z,18.42
2018-12-23T08:46:04.991Z,18.42
2018-12-23T08:47:07.478Z,18.40
2018-12-23T08:48:10.034Z,18.41
2018-12-23T08:49:12.529Z,18.40
2018-12-23T08:50:15.015Z,18.40
2018-12-23T08:51:17.587Z,18.38
2018-12-23T08:52:20.072Z,18.38
2018-12-23T08:53:22.563Z,18.39
2018-12-23T08:54:25.034Z,18.38
2018-12-23T08:55:27.513Z,18.37
2018-12-23T08:56:29.994Z,18.36
2018-12-23T08:57:32.474Z,18.36
2018-12-23T08:58:34.962Z,18.35
2018-12-23T08:59:37.442Z,18.35
2018-12-23T09:00:39.913Z,18.34
2018-12-23T09:01:42.410Z,18.35
2018-12-23T09:02:44.976Z,18.34
2018-12-23T09:03:47.602Z,18.33
2018-12-23T09:04:50.108Z,18.34
2018-12-23T09:05:52.710Z,18.33
2018-12-23T09:06:55.222Z,18.33
2018-12-23T09:07:57.727Z,18.31
2018-12-23T09:09:00.230Z,18.31
2018-12-23T09:10:02.777Z,18.31
2018-12-23T09:11:05.249Z,18.30
2018-12-23T09:12:07.779Z,18.30
2018-12-23T09:13:10.258Z,18.29
2018-12-23T09:14:12.750Z,18.29
2018-12-23T09:15:15.212Z,18.28
2018-12-23T09:16:18.063Z,18.28
2018-12-23T09:17:20.660Z,18.27
2018-12-23T09:18:23.127Z,18.27
2018-12-23T09:19:25.633Z,18.28
2018-12-23T09:20:28.132Z,18.26
2018-12-23T09:21:30.620Z,18.26
2018-12-23T09:22:33.095Z,18.25
2018-12-23T09:23:35.574Z,18.25
2018-12-23T09:24:38.054Z,18.24
2018-12-23T09:25:40.514Z,18.24
2018-12-23T09:26:43.104Z,18.24
2018-12-23T09:27:45.597Z,18.23
2018-12-23T09:28:48.092Z,18.24
2018-12-23T09:29:50.606Z,18.23
2018-12-23T09:30:53.069Z,18.22
2018-12-23T09:31:55.595Z,18.22
2018-12-23T09:32:58.085Z,18.23
2018-12-23T09:34:00.577Z,18.22
2018-12-23T09:35:03.089Z,18.21
2018-12-23T09:36:05.551Z,18.21
2018-12-23T09:37:08.022Z,18.20
2018-12-23T09:38:10.513Z,18.21
2018-12-23T09:39:13.002Z,18.20
2018-12-23T09:40:15.574Z,18.19
2018-12-23T09:41:18.058Z,18.18
2018-12-23T09:42:20.523Z,18.18
2018-12-23T09:43:22.998Z,18.18
2018-12-23T09:44:25.468Z,18.17
2018-12-23T09:45:28.011Z,18.17
2018-12-23T09:46:30.472Z,18.17
2018-12-23T09:47:32.973Z,18.16
2018-12-23T09:48:35.465Z,18.16
2018-12-23T09:49:37.961Z,18.15
2018-12-23T09:50:40.473Z,18.14
2018-12-23T09:51:42.936Z,18.13
2018-12-23T09:52:45.422Z,18.13
2018-12-23T09:53:47.883Z,18.13
2018-12-23T09:54:50.363Z,18.13
2018-12-23T09:55:52.873Z,18.12
2018-12-23T09:56:55.373Z,18.13
2018-12-23T09:57:57.852Z,18.12
2018-12-23T09:59:00.327Z,18.12
2018-12-23T10:00:02.961Z,18.11
2018-12-23T10:01:05.516Z,18.11
2018-12-23T10:02:07.973Z,18.10
2018-12-23T10:03:10.488Z,18.10
2018-12-23T10:04:13.071Z,18.09
2018-12-23T10:05:15.570Z,18.09
2018-12-23T10:06:18.064Z,18.09
2018-12-23T10:07:20.545Z,18.10
2018-12-23T10:08:23.053Z,18.08
2018-12-23T10:09:25.549Z,18.07
2018-12-23T10:10:28.643Z,18.06
2018-12-23T10:11:31.382Z,18.07
2018-12-23T10:12:34.633Z,18.06
2018-12-23T10:13:37.100Z,18.05
2018-12-23T10:14:39.564Z,18.05
2018-12-23T10:15:42.054Z,18.05
2018-12-23T10:16:44.556Z,18.04
2018-12-23T10:17:47.042Z,18.04
2018-12-23T10:18:49.517Z,18.04
2018-12-23T10:19:51.998Z,18.03
2018-12-23T10:20:54.465Z,18.04
2018-12-23T10:21:56.977Z,18.03
2018-12-23T10:22:59.461Z,18.03
2018-12-23T10:24:01.949Z,18.03
2018-12-23T10:25:04.571Z,18.02
2018-12-23T10:26:07.070Z,18.02
2018-12-23T10:27:09.563Z,18.01
2018-12-23T10:28:12.099Z,18.01
2018-12-23T10:29:14.573Z,18.01
2018-12-23T10:30:17.050Z,18.01
2018-12-23T10:31:19.527Z,17.99
2018-12-23T10:32:22.056Z,17.99
2018-12-23T10:33:24.561Z,18.00
2018-12-23T10:34:27.034Z,17.99
2018-12-23T10:35:29.529Z,17.99
2018-12-23T10:36:32.012Z,18.00
2018-12-23T10:37:34.502Z,17.99
2018-12-23T10:38:36.993Z,17.98
2018-12-23T10:39:39.452Z,17.98
2018-12-23T10:40:41.931Z,17.98
2018-12-23T10:41:44.396Z,17.96
2018-12-23T10:42:46.875Z,17.97
2018-12-23T10:43:49.365Z,17.96
2018-12-23T10:44:51.901Z,17.96
2018-12-23T10:45:54.458Z,17.95
2018-12-23T10:46:56.934Z,17.95
2018-12-23T10:47:59.430Z,17.95
2018-12-23T10:49:01.927Z,17.94
2018-12-23T10:50:04.828Z,17.95
2018-12-23T10:51:07.287Z,17.94
2018-12-23T10:52:09.781Z,17.94
2018-12-23T10:53:12.272Z,17.94
2018-12-23T10:54:14.751Z,17.92
2018-12-23T10:55:17.224Z,17.93
2018-12-23T10:56:19.720Z,17.93
2018-12-23T10:57:22.180Z,17.93
2018-12-23T10:58:24.746Z,17.93
2018-12-23T10:59:27.292Z,17.91
2018-12-23T11:00:29.794Z,17.92
2018-12-23T11:01:32.266Z,17.90
2018-12-23T11:02:34.742Z,17.91
2018-12-23T11:03:37.234Z,17.91
2018-12-23T11:04:39.718Z,17.90
2018-12-23T11:05:42.198Z,17.90
2018-12-23T11:06:44.670Z,17.90
2018-12-23T11:07:47.128Z,17.89
2018-12-23T11:08:49.609Z,17.89
2018-12-23T11:09:52.069Z,17.88
2018-12-23T11:10:54.532Z,17.88
2018-12-23T11:11:56.998Z,17.87
2018-12-23T11:12:59.470Z,17.87
2018-12-23T11:14:02.038Z,17.87
2018-12-23T11:15:05.640Z,17.86
2018-12-23T11:16:08.122Z,17.86
2018-12-23T11:17:10.617Z,17.85
2018-12-23T11:18:13.109Z,17.86
2018-12-23T11:19:15.653Z,17.85
2018-12-23T11:20:18.107Z,17.86
2018-12-23T11:21:20.590Z,17.85
2018-12-23T11:22:23.069Z,17.85
2018-12-23T11:23:25.536Z,17.85
2018-12-23T11:24:28.029Z,17.84
2018-12-23T11:25:30.492Z,17.84
2018-12-23T11:26:32.951Z,17.84
2018-12-23T11:27:35.408Z,17.84
2018-12-23T11:28:37.882Z,17.84
2018-12-23T11:29:40.375Z,17.83
2018-12-23T11:30:42.850Z,17.83
2018-12-23T11:31:45.327Z,17.82
2018-12-23T11:32:47.803Z,17.83
2018-12-23T11:33:50.265Z,17.82
2018-12-23T11:34:52.740Z,17.81
2018-12-23T11:35:55.258Z,17.80
2018-12-23T11:36:57.735Z,17.80
2018-12-23T11:38:00.233Z,17.80
2018-12-23T11:39:03.082Z,17.80
2018-12-23T11:40:07.704Z,17.80
2018-12-23T11:41:10.165Z,17.79
2018-12-23T11:42:12.619Z,17.78
2018-12-23T11:43:15.094Z,17.78
2018-12-23T11:44:17.567Z,17.79
2018-12-23T11:45:20.067Z,17.78
2018-12-23T11:46:22.538Z,17.78
2018-12-23T11:47:25.000Z,17.78
2018-12-23T11:48:27.488Z,17.78
2018-12-23T11:49:29.952Z,17.78
2018-12-23T11:50:32.428Z,17.77
2018-12-23T11:51:34.884Z,17.77
2018-12-23T11:52:37.336Z,17.76
2018-12-23T11:53:39.792Z,17.76
2018-12-23T11:54:42.262Z,17.76
2018-12-23T11:55:44.776Z,17.76
2018-12-23T11:56:47.236Z,17.75
2018-12-23T11:57:49.725Z,17.76
2018-12-23T11:58:52.197Z,17.75
2018-12-23T11:59:54.679Z,17.75
2018-12-23T12:00:57.161Z,17.74
2018-12-23T12:01:59.630Z,17.74
2018-12-23T12:03:02.121Z,17.74
2018-12-23T12:04:04.578Z,17.74
2018-12-23T12:05:07.033Z,17.74
2018-12-23T12:06:09.545Z,17.73
2018-12-23T12:07:12.023Z,17.73
2018-12-23T12:08:14.513Z,17.73
2018-12-23T12:09:16.988Z,17.73
2018-12-23T12:10:19.455Z,17.72
2018-12-23T12:11:21.950Z,17.72
2018-12-23T12:12:24.407Z,17.72
2018-12-23T12:13:27.058Z,17.71
2018-12-23T12:14:29.535Z,17.71
2018-12-23T12:15:32.027Z,17.70
2018-12-23T12:16:34.500Z,17.70
2018-12-23T12:17:36.975Z,17.70
2018-12-23T12:18:39.447Z,17.69
2018-12-23T12:19:41.927Z,17.69
2018-12-23T12:20:44.404Z,17.70
2018-12-23T12:21:46.913Z,17.70
2018-12-23T12:22:49.392Z,17.69
2018-12-23T12:23:51.874Z,17.69
2018-12-23T12:24:54.354Z,17.68
2018-12-23T12:25:56.831Z,17.69
2018-12-23T12:26:59.322Z,17.69
2018-12-23T12:28:01.813Z,17.69
2018-12-23T12:29:04.284Z,17.67
2018-12-23T12:30:06.830Z,17.68
2018-12-23T12:31:09.305Z,17.67
2018-12-23T12:32:11.816Z,17.67
2018-12-23T12:33:14.291Z,17.67
2018-12-23T12:34:16.767Z,17.67
2018-12-23T12:35:19.261Z,17.66
2018-12-23T12:36:21.810Z,17.65
2018-12-23T12:37:24.310Z,17.65
2018-12-23T12:38:26.769Z,17.65
2018-12-23T12:39:29.224Z,17.65
2018-12-23T12:40:31.712Z,17.65
2018-12-23T12:41:34.195Z,17.64
2018-12-23T12:42:36.671Z,17.64
2018-12-23T12:43:39.150Z,17.65
2018-12-23T12:44:41.612Z,17.64
2018-12-23T12:45:44.108Z,17.63
2018-12-23T12:46:46.589Z,17.63
2018-12-23T12:47:49.064Z,17.63
2018-12-23T12:48:51.542Z,17.63
2018-12-23T12:49:54.013Z,17.62
2018-12-23T12:50:56.514Z,17.63
2018-12-23T12:51:58.995Z,17.62
2018-12-23T12:53:01.477Z,17.62
2018-12-23T12:54:03.931Z,17.61
2018-12-23T12:55:06.389Z,17.62
2018-12-23T12:56:08.866Z,17.62
2018-12-23T12:57:11.357Z,17.62
2018-12-23T12:58:13.872Z,17.63
2018-12-23T12:59:16.364Z,17.62
2018-12-23T13:00:18.858Z,17.62
2018-12-23T13:01:21.333Z,17.63
2018-12-23T13:02:23.822Z,17.63
2018-12-23T13:03:26.320Z,17.63
2018-12-23T13:04:28.805Z,17.63
2018-12-23T13:05:31.282Z,17.63
2018-12-23T13:06:33.740Z,17.63
2018-12-23T13:07:36.211Z,17.64
2018-12-23T13:08:38.711Z,17.64
2018-12-23T13:09:41.197Z,17.65
2018-12-23T13:10:43.660Z,17.63
2018-12-23T13:11:46.130Z,17.63
2018-12-23T13:12:48.606Z,17.63
2018-12-23T13:13:51.083Z,17.64
2018-12-23T13:14:53.544Z,17.63
2018-12-23T13:15:56.022Z,17.63
2018-12-23T13:16:58.480Z,17.64
2018-12-23T13:18:00.936Z,17.62
2018-12-23T13:19:03.492Z,17.63
2018-12-23T13:20:06.784Z,17.63
2018-12-23T13:21:09.263Z,17.63
2018-12-23T13:22:11.743Z,17.63
2018-12-23T13:23:14.218Z,17.61
2018-12-23T13:24:16.729Z,17.62
2018-12-23T13:25:19.202Z,17.61